Time;durP1;ratioP1;P1;durP2;ratioP2;P2;SDS_P1;SDS_P2;PMS_P1;PMS_P2;Temp;Humidity;BMP_temperature;BMP_pressure;BME280_temperature;BME280_humidity;BME280_pressure;Samples;Min_cycle;Max_cycle;Signal;HPM_P1;HPM_P2
2022/04/29 00:03:34;;;;;;;7.93;7.13;;;;;;;;;;10587553;27;20450;-83
2022/04/29 00:08:36;;;;;;;7.93;6.88;;;;;;;;;;10592404;27;20970;-82
2022/04/29 00:13:39;;;;;;;8.02;6.72;;;;;;;;;;10587967;27;20489;-83
2022/04/29 00:18:41;;;;;;;6.97;6.13;;;;;;;;;;10587801;27;20394;-82
2022/04/29 00:23:43;;;;;;;7.13;6.43;;;;;;;;;;10595002;27;20477;-83
2022/04/29 00:28:46;;;;;;;7.70;6.35;;;;;;;;;;10587273;27;20495;-82
2022/04/29 00:33:48;;;;;;;6.63;5.72;;;;;;;;;;10586572;27;20480;-82
2022/04/29 00:38:49;;;;;;;7.37;5.57;;;;;;;;;;10591811;27;20483;-82
2022/04/29 00:44:01;;;;;;;6.38;5.45;;;;;;;;;;10586392;27;20507;-83
2022/04/29 00:49:06;;;;;;;6.67;5.00;;;;;;;;;;10585080;27;20514;-82
2022/04/29 00:54:10;;;;;;;5.88;5.18;;;;;;;;;;10594535;27;20420;-82
2022/04/29 00:59:15;;;;;;;5.80;5.28;;;;;;;;;;10585952;28;20408;-82
2022/04/29 01:04:22;;;;;;;6.13;5.53;;;;;;;;;;10586588;28;20400;-82
2022/04/29 01:09:24;;;;;;;6.13;5.53;;;;;;;;;;10590736;27;20411;-82
2022/04/29 01:14:27;;;;;;;6.22;5.63;;;;;;;;;;10586184;28;20388;-83
2022/04/29 01:19:30;;;;;;;6.78;5.80;;;;;;;;;;10587344;28;20419;-82
2022/04/29 01:24:33;;;;;;;8.57;5.60;;;;;;;;;;10593808;27;20454;-82
2022/04/29 01:29:35;;;;;;;6.10;5.30;;;;;;;;;;10585663;28;20444;-83
2022/04/29 01:34:37;;;;;;;7.17;5.70;;;;;;;;;;10584472;28;20393;-82
2022/04/29 01:39:40;;;;;;;6.88;5.60;;;;;;;;;;10586958;27;20997;-82
2022/04/29 01:44:42;;;;;;;5.97;5.30;;;;;;;;;;10585201;28;20482;-83
2022/04/29 01:49:44;;;;;;;6.07;5.40;;;;;;;;;;10593548;27;20503;-82
2022/04/29 01:54:47;;;;;;;6.20;5.60;;;;;;;;;;10609460;27;20816;-82
2022/04/29 01:59:49;;;;;;;6.00;5.30;;;;;;;;;;10593330;27;21117;-82
2022/04/29 02:04:51;;;;;;;5.80;4.95;;;;;;;;;;10615317;27;20487;-82
2022/04/29 02:09:56;;;;;;;6.50;5.15;;;;;;;;;;10652374;27;20422;-82
2022/04/29 02:14:58;;;;;;;5.70;5.10;;;;;;;;;;10620440;27;20411;-82
2022/04/29 02:20:00;;;;;;;6.80;5.37;;;;;;;;;;10584255;27;20399;-82
2022/04/29 02:25:04;;;;;;;6.38;5.75;;;;;;;;;;10588277;27;20418;-82
2022/04/29 02:30:07;;;;;;;6.30;5.70;;;;;;;;;;10571681;28;20766;-82
2022/04/29 02:35:10;;;;;;;7.83;6.13;;;;;;;;;;10571439;28;20916;-82
2022/04/29 02:40:14;;;;;;;7.25;5.47;;;;;;;;;;10614419;27;20585;-82
2022/04/29 02:45:16;;;;;;;6.68;5.43;;;;;;;;;;10613875;27;20405;-81
2022/04/29 02:50:18;;;;;;;6.55;5.07;;;;;;;;;;10610071;27;20422;-82
2022/04/29 02:55:21;;;;;;;8.02;5.97;;;;;;;;;;10618375;27;20435;-82
2022/04/29 03:00:23;;;;;;;6.72;5.82;;;;;;;;;;10612715;27;20948;-82
2022/04/29 03:05:26;;;;;;;7.28;5.63;;;;;;;;;;10613074;27;20908;-82
2022/04/29 03:10:29;;;;;;;8.30;6.00;;;;;;;;;;10655344;27;20419;-82
2022/04/29 03:15:33;;;;;;;6.83;6.10;;;;;;;;;;10655318;27;20498;-82
2022/04/29 03:20:36;;;;;;;7.25;6.40;;;;;;;;;;10651743;27;20476;-81
2022/04/29 03:25:40;;;;;;;6.68;5.97;;;;;;;;;;10577439;27;20406;-82
2022/04/29 03:30:42;;;;;;;7.57;6.77;;;;;;;;;;10569468;28;20431;-82
2022/04/29 03:35:46;;;;;;;7.95;6.57;;;;;;;;;;10578030;27;20401;-82
2022/04/29 03:40:50;;;;;;;8.77;7.53;;;;;;;;;;10655006;27;20434;-82
2022/04/29 03:45:52;;;;;;;8.98;7.35;;;;;;;;;;10653621;27;20947;-82
2022/04/29 03:50:53;;;;;;;9.63;7.30;;;;;;;;;;10646992;27;20421;-82
2022/04/29 03:55:57;;;;;;;8.90;7.55;;;;;;;;;;10610855;27;20849;-82
2022/04/29 04:00:58;;;;;;;9.23;7.85;;;;;;;;;;10610399;27;20389;-82
2022/04/29 04:11:21;;;;;;;10.50;8.10;;;;;;;;;;10583436;27;20406;-84
2022/04/29 04:16:24;;;;;;;8.80;7.77;;;;;;;;;;10587964;27;20405;-83
2022/04/29 04:21:26;;;;;;;9.38;7.80;;;;;;;;;;10599536;27;20424;-83
2022/04/29 04:26:29;;;;;;;10.52;8.10;;;;;;;;;;10588240;27;20489;-83
2022/04/29 04:31:31;;;;;;;9.23;7.80;;;;;;;;;;10587874;27;20503;-83
2022/04/29 04:36:32;;;;;;;7.90;7.10;;;;;;;;;;10595647;27;20484;-83
2022/04/29 04:41:36;;;;;;;7.63;6.85;;;;;;;;;;10587113;27;20444;-83
2022/04/29 04:46:38;;;;;;;11.30;7.50;;;;;;;;;;10587960;27;20406;-84
2022/04/29 04:51:40;;;;;;;8.40;7.33;;;;;;;;;;10596073;27;20529;-83
2022/04/29 04:56:43;;;;;;;9.77;8.43;;;;;;;;;;10585159;28;21192;-82
2022/04/29 05:01:45;;;;;;;10.63;8.70;;;;;;;;;;10527557;22;20520;-82
2022/04/29 05:06:47;;;;;;;11.07;8.82;;;;;;;;;;10461296;28;20437;-86
2022/04/29 05:11:50;;;;;;;10.82;8.68;;;;;;;;;;10454352;28;20505;-84
2022/04/29 05:16:52;;;;;;;12.93;8.88;;;;;;;;;;10448172;28;20934;-84
2022/04/29 05:21:54;;;;;;;9.88;7.72;;;;;;;;;;10462929;28;20500;-85
2022/04/29 05:26:57;;;;;;;10.02;8.55;;;;;;;;;;10457224;28;20422;-83
2022/04/29 05:31:59;;;;;;;9.48;7.70;;;;;;;;;;10462993;28;20929;-83
2022/04/29 05:37:01;;;;;;;13.23;9.00;;;;;;;;;;10470240;28;20500;-85
2022/04/29 05:42:15;;;;;;;11.37;8.93;;;;;;;;;;10455787;28;20443;-83
2022/04/29 05:47:17;;;;;;;10.80;9.10;;;;;;;;;;10462980;28;20422;-83
2022/04/29 05:52:19;;;;;;;11.55;9.45;;;;;;;;;;10458644;28;20439;-84
2022/04/29 05:57:23;;;;;;;11.75;9.80;;;;;;;;;;10440576;28;20410;-85
2022/04/29 06:02:25;;;;;;;15.67;10.63;;;;;;;;;;10461658;28;20522;-84
2022/04/29 06:07:27;;;;;;;12.95;9.77;;;;;;;;;;10454213;28;20412;-84
2022/04/29 06:12:30;;;;;;;15.47;10.03;;;;;;;;;;10460701;28;20949;-84
2022/04/29 06:17:32;;;;;;;13.90;9.65;;;;;;;;;;10464994;28;20409;-85
2022/04/29 06:22:33;;;;;;;10.70;8.45;;;;;;;;;;10467640;28;20776;-84
2022/04/29 06:27:37;;;;;;;11.43;7.82;;;;;;;;;;10465082;28;20414;-84
2022/04/29 06:32:38;;;;;;;9.40;6.90;;;;;;;;;;10465103;28;20523;-83
2022/04/29 06:37:40;;;;;;;7.53;5.30;;;;;;;;;;10467386;28;20481;-84
2022/04/29 06:42:47;;;;;;;6.43;4.00;;;;;;;;;;10464465;28;20878;-84
2022/04/29 06:47:49;;;;;;;4.22;3.10;;;;;;;;;;10463898;28;20398;-85
2022/04/29 06:52:51;;;;;;;3.22;2.90;;;;;;;;;;10463575;28;20517;-82
2022/04/29 06:57:54;;;;;;;3.17;2.93;;;;;;;;;;10464442;28;20402;-82
2022/04/29 07:02:57;;;;;;;3.83;2.70;;;;;;;;;;10463698;28;20407;-82
2022/04/29 07:07:59;;;;;;;4.75;2.90;;;;;;;;;;10464102;28;20416;-82
2022/04/29 07:13:03;;;;;;;4.28;3.10;;;;;;;;;;10458855;28;20995;-84
2022/04/29 07:18:05;;;;;;;3.20;2.80;;;;;;;;;;10454377;28;20422;-84
2022/04/29 07:23:07;;;;;;;3.40;3.03;;;;;;;;;;10459495;28;20902;-83
2022/04/29 07:28:10;;;;;;;3.88;3.25;;;;;;;;;;10458049;28;20404;-83
2022/04/29 07:33:12;;;;;;;3.88;3.08;;;;;;;;;;10455491;28;20504;-83
2022/04/29 07:43:34;;;;;;;4.65;2.95;;;;;;;;;;10462424;28;20394;-84
2022/04/29 07:48:36;;;;;;;4.65;3.20;;;;;;;;;;10461085;28;20437;-84
2022/04/29 07:53:38;;;;;;;3.10;2.80;;;;;;;;;;10464232;28;20777;-84
2022/04/29 07:58:41;;;;;;;3.03;2.73;;;;;;;;;;10458398;28;20410;-84
2022/04/29 08:03:43;;;;;;;3.13;2.88;;;;;;;;;;10461387;28;20940;-83
2022/04/29 08:08:45;;;;;;;3.78;2.78;;;;;;;;;;10461322;28;20487;-84
2022/04/29 08:13:48;;;;;;;3.40;2.88;;;;;;;;;;10461097;28;20429;-84
2022/04/29 08:18:52;;;;;;;3.75;2.70;;;;;;;;;;10460748;28;20956;-84
2022/04/29 08:23:54;;;;;;;5.20;2.95;;;;;;;;;;10449882;28;20473;-84
2022/04/29 08:28:58;;;;;;;3.50;2.87;;;;;;;;;;10452324;28;20468;-84
2022/04/29 08:34:00;;;;;;;4.30;2.87;;;;;;;;;;10463139;28;20524;-84
2022/04/29 08:39:02;;;;;;;3.15;2.65;;;;;;;;;;10461386;28;20415;-84
2022/04/29 08:44:09;;;;;;;3.78;3.20;;;;;;;;;;10460771;28;20745;-84
2022/04/29 08:49:11;;;;;;;4.63;3.08;;;;;;;;;;10456411;28;20402;-84
2022/04/29 08:58:36;;;;;;;4.88;2.97;;;;;;;;;;10459857;28;20419;-84
2022/04/29 08:59:37;;;;;;;4.32;2.90;;;;;;;;;;10459437;28;20832;-84
2022/04/29 09:04:39;;;;;;;4.72;2.95;;;;;;;;;;10459997;28;20489;-84
2022/04/29 09:09:41;;;;;;;5.43;2.90;;;;;;;;;;10458862;28;20429;-85
2022/04/29 09:14:45;;;;;;;3.20;2.90;;;;;;;;;;10455789;28;20674;-84
2022/04/29 09:19:47;;;;;;;6.25;3.00;;;;;;;;;;10459737;28;20421;-85
2022/04/29 09:24:59;;;;;;;5.18;3.10;;;;;;;;;;10462702;28;20902;-84
2022/04/29 09:30:03;;;;;;;4.30;3.05;;;;;;;;;;10459339;28;20406;-84
2022/04/29 09:35:05;;;;;;;5.28;3.10;;;;;;;;;;10459690;28;21025;-85
2022/04/29 09:40:08;;;;;;;3.70;3.13;;;;;;;;;;10459097;28;20482;-84
2022/04/29 09:45:15;;;;;;;4.28;3.63;;;;;;;;;;10459134;28;20479;-84
2022/04/29 09:50:17;;;;;;;4.18;3.70;;;;;;;;;;10455253;28;20403;-84
2022/04/29 09:55:20;;;;;;;3.75;3.22;;;;;;;;;;10458203;28;20490;-85
2022/04/29 10:00:24;;;;;;;5.00;3.53;;;;;;;;;;10458682;28;20434;-85
2022/04/29 10:05:27;;;;;;;4.50;3.40;;;;;;;;;;10460938;28;20486;-83
2022/04/29 10:10:31;;;;;;;3.90;3.10;;;;;;;;;;10461653;28;20925;-84
2022/04/29 10:15:37;;;;;;;6.30;3.08;;;;;;;;;;10465892;28;20819;-85
2022/04/29 10:25:59;;;;;;;4.20;3.33;;;;;;;;;;10463506;28;20851;-84
2022/04/29 10:31:05;;;;;;;4.72;3.60;;;;;;;;;;10465427;28;20416;-85
2022/04/29 10:36:08;;;;;;;5.00;4.20;;;;;;;;;;10464793;28;20534;-84
2022/04/29 10:41:20;;;;;;;6.75;4.35;;;;;;;;;;10465795;28;20470;-85
2022/04/29 10:46:24;;;;;;;4.30;3.88;;;;;;;;;;10462314;28;20838;-84
2022/04/29 10:51:48;;;;;;;4.80;3.60;;;;;;;;;;10463787;28;20791;-85
2022/04/29 10:57:01;;;;;;;4.47;3.87;;;;;;;;;;10461616;28;20403;-85
2022/04/29 11:02:13;;;;;;;4.73;3.60;;;;;;;;;;10464151;28;20437;-85
2022/04/29 11:07:49;;;;;;;4.13;3.70;;;;;;;;;;10462034;28;20917;-85
2022/04/29 11:12:59;;;;;;;5.43;3.65;;;;;;;;;;10352167;28;20523;-85
2022/04/29 11:18:20;;;;;;;5.77;4.30;;;;;;;;;;10438543;28;20419;-86
2022/04/29 11:28:52;;;;;;;4.22;3.83;;;;;;;;;;10455389;28;20399;-86
2022/04/29 11:34:05;;;;;;;4.28;3.88;;;;;;;;;;10460778;28;20786;-85
2022/04/29 11:39:14;;;;;;;5.03;4.00;;;;;;;;;;10461063;28;20417;-84
2022/04/29 11:44:16;;;;;;;5.32;3.75;;;;;;;;;;10454072;28;20941;-84
2022/04/29 11:49:28;;;;;;;5.63;4.00;;;;;;;;;;10453635;28;20426;-85
2022/04/29 11:54:30;;;;;;;4.90;3.80;;;;;;;;;;10455888;28;20409;-85
2022/04/29 11:59:32;;;;;;;5.47;3.83;;;;;;;;;;10455261;28;20421;-85
2022/04/29 12:04:35;;;;;;;6.53;3.90;;;;;;;;;;10458404;28;20976;-84
2022/04/29 12:09:37;;;;;;;4.55;3.92;;;;;;;;;;10450267;28;20426;-84
2022/04/29 12:14:39;;;;;;;5.53;4.00;;;;;;;;;;10436666;28;20419;-83
2022/04/29 12:19:42;;;;;;;4.45;3.92;;;;;;;;;;10447042;28;20498;-84
2022/04/29 12:24:45;;;;;;;4.67;3.80;;;;;;;;;;10444952;28;20491;-83
2022/04/29 12:34:48;;;;;;;4.75;3.90;;;;;;;;;;10439652;28;20419;-84
2022/04/29 12:35:11;;;;;;;7.38;3.70;;;;;;;;;;10436507;28;20454;-84
2022/04/29 12:40:13;;;;;;;4.33;3.70;;;;;;;;;;10439996;28;20408;-84
2022/04/29 12:45:18;;;;;;;4.30;3.53;;;;;;;;;;10440928;28;20759;-84
2022/04/29 12:50:28;;;;;;;5.38;3.88;;;;;;;;;;10438103;28;20411;-85
2022/04/29 12:55:32;;;;;;;3.70;3.40;;;;;;;;;;10436669;28;20481;-84
2022/04/29 13:00:35;;;;;;;4.67;3.97;;;;;;;;;;10435906;28;21177;-85
2022/04/29 13:05:40;;;;;;;4.67;3.70;;;;;;;;;;10438544;28;20404;-84
2022/04/29 13:10:46;;;;;;;4.30;3.70;;;;;;;;;;10438377;28;20409;-85
2022/04/29 13:15:49;;;;;;;4.40;3.50;;;;;;;;;;10448920;28;20496;-85
2022/04/29 13:20:53;;;;;;;4.95;3.72;;;;;;;;;;10452744;28;20923;-85
2022/04/29 13:25:56;;;;;;;5.45;3.80;;;;;;;;;;10460025;28;20414;-84
2022/04/29 13:31:02;;;;;;;3.85;3.30;;;;;;;;;;10456255;28;20903;-84
2022/04/29 13:36:07;;;;;;;4.90;3.70;;;;;;;;;;10457789;28;20471;-84
2022/04/29 13:41:09;;;;;;;14.33;3.50;;;;;;;;;;10461406;28;20825;-85
2022/04/29 13:46:12;;;;;;;4.30;3.50;;;;;;;;;;10452239;28;20404;-85
2022/04/29 13:51:15;;;;;;;5.50;3.27;;;;;;;;;;10449025;28;20408;-85
2022/04/29 13:56:17;;;;;;;3.38;3.08;;;;;;;;;;10468266;28;20436;-85
2022/04/29 14:01:19;;;;;;;4.32;3.15;;;;;;;;;;10465885;28;20533;-84
2022/04/29 14:06:22;;;;;;;3.40;2.83;;;;;;;;;;10458176;28;20478;-85
2022/04/29 14:11:24;;;;;;;3.30;2.80;;;;;;;;;;10466089;28;20430;-87
2022/04/29 14:16:26;;;;;;;3.23;2.93;;;;;;;;;;10467152;28;20491;-85
2022/04/29 14:21:29;;;;;;;3.20;2.80;;;;;;;;;;10464262;28;20498;-84
2022/04/29 14:26:31;;;;;;;5.13;3.10;;;;;;;;;;10465953;28;20408;-85
2022/04/29 14:31:33;;;;;;;3.28;2.78;;;;;;;;;;10460147;28;20451;-86
2022/04/29 14:36:36;;;;;;;3.67;2.87;;;;;;;;;;10462367;28;20501;-85
2022/04/29 14:41:38;;;;;;;3.67;2.88;;;;;;;;;;10449349;28;20643;-85
2022/04/29 14:46:41;;;;;;;2.83;2.60;;;;;;;;;;10452551;28;20413;-86
2022/04/29 14:51:45;;;;;;;3.10;2.80;;;;;;;;;;10458563;28;20419;-85
2022/04/29 14:56:47;;;;;;;4.50;2.80;;;;;;;;;;10449659;28;20418;-85
2022/04/29 15:01:48;;;;;;;2.97;2.20;;;;;;;;;;10450695;28;20421;-84
2022/04/29 15:06:52;;;;;;;2.60;2.33;;;;;;;;;;10453436;28;20420;-86
2022/04/29 15:17:17;;;;;;;2.97;2.20;;;;;;;;;;10460444;28;20386;-87
2022/04/29 15:22:21;;;;;;;2.50;2.30;;;;;;;;;;10464312;28;20974;-87
2022/04/29 15:27:23;;;;;;;3.92;3.08;;;;;;;;;;10462446;28;20465;-86
2022/04/29 15:32:25;;;;;;;2.50;2.30;;;;;;;;;;10444495;28;20506;-87
2022/04/29 15:37:29;;;;;;;2.15;1.90;;;;;;;;;;10452381;28;20447;-85
2022/04/29 15:42:31;;;;;;;4.32;2.10;;;;;;;;;;10454838;28;20407;-86
2022/04/29 15:47:32;;;;;;;2.60;2.00;;;;;;;;;;10454111;28;20473;-86
2022/04/29 15:52:36;;;;;;;5.10;2.20;;;;;;;;;;10447342;28;20422;-86
2022/04/29 15:57:38;;;;;;;3.50;2.23;;;;;;;;;;10442536;28;20502;-86
2022/04/29 16:02:40;;;;;;;2.10;1.90;;;;;;;;;;10442986;28;20919;-86
2022/04/29 16:07:43;;;;;;;2.53;2.33;;;;;;;;;;10437264;28;20431;-86
2022/04/29 16:12:45;;;;;;;2.53;1.92;;;;;;;;;;10443548;28;20528;-86
2022/04/29 16:28:29;;;;;;;5.75;2.10;;;;;;;;;;10445928;28;20416;-87
2022/04/29 16:33:31;;;;;;;3.65;2.20;;;;;;;;;;10464297;28;20428;-91
2022/04/29 16:38:38;;;;;;;2.60;2.08;;;;;;;;;;10453633;28;20422;-85
2022/04/29 16:43:40;;;;;;;6.47;2.60;;;;;;;;;;10438173;28;20553;-85
2022/04/29 16:48:42;;;;;;;2.80;2.20;;;;;;;;;;10446472;28;20911;-85
2022/04/29 16:53:46;;;;;;;3.47;2.40;;;;;;;;;;10445333;28;20536;-86
2022/04/29 16:58:55;;;;;;;2.20;2.08;;;;;;;;;;10445455;28;20410;-85
2022/04/29 17:04:00;;;;;;;3.30;2.05;;;;;;;;;;10438583;28;20430;-85
2022/04/29 17:09:03;;;;;;;3.83;2.40;;;;;;;;;;10441079;28;20414;-86
2022/04/29 17:14:05;;;;;;;3.00;2.40;;;;;;;;;;10447423;22;21013;-80
2022/04/29 17:19:07;;;;;;;5.72;2.90;;;;;;;;;;10425038;28;20831;-80
2022/04/29 17:24:10;;;;;;;4.63;2.47;;;;;;;;;;10432847;28;20412;-79
2022/04/29 17:29:12;;;;;;;8.23;3.00;;;;;;;;;;10431322;28;20510;-82
2022/04/29 17:34:16;;;;;;;3.50;3.00;;;;;;;;;;10428494;28;20426;-81
2022/04/29 17:44:39;;;;;;;5.30;3.20;;;;;;;;;;10424266;28;20399;-82
2022/04/29 17:49:41;;;;;;;6.30;3.13;;;;;;;;;;10424828;28;20404;-81
2022/04/29 17:54:44;;;;;;;5.57;3.10;;;;;;;;;;10425781;28;20714;-81
2022/04/29 17:59:46;;;;;;;5.72;3.10;;;;;;;;;;10423924;28;20429;-81
2022/04/29 18:04:48;;;;;;;6.15;3.20;;;;;;;;;;10427012;28;20431;-81
2022/04/29 18:09:51;;;;;;;4.53;2.50;;;;;;;;;;10428270;28;20419;-82
2022/04/29 18:14:53;;;;;;;5.30;2.60;;;;;;;;;;10423878;28;20419;-82
2022/04/29 18:19:55;;;;;;;4.93;2.87;;;;;;;;;;10424589;28;20411;-80
2022/04/29 18:24:58;;;;;;;5.03;2.95;;;;;;;;;;10416650;28;20415;-81
2022/04/29 18:30:01;;;;;;;4.10;3.00;;;;;;;;;;10417926;28;20517;-81
2022/04/29 18:35:02;;;;;;;3.88;2.65;;;;;;;;;;10414867;28;20426;-81
2022/04/29 18:40:07;;;;;;;4.32;2.90;;;;;;;;;;10421092;28;20411;-81
2022/04/29 18:45:11;;;;;;;4.75;3.08;;;;;;;;;;10421844;28;21041;-81
2022/04/29 18:50:13;;;;;;;5.82;3.70;;;;;;;;;;10422814;28;20411;-81
2022/04/29 18:55:16;;;;;;;5.03;3.30;;;;;;;;;;10420732;28;20427;-81
2022/04/29 19:00:19;;;;;;;7.13;3.28;;;;;;;;;;10421694;28;20411;-81
2022/04/29 19:05:21;;;;;;;5.07;3.43;;;;;;;;;;10421757;28;20441;-81
2022/04/29 19:10:24;;;;;;;7.38;4.07;;;;;;;;;;10420977;28;20423;-81
2022/04/29 19:15:26;;;;;;;6.85;4.50;;;;;;;;;;10419235;28;20440;-81
2022/04/29 19:20:28;;;;;;;7.57;4.57;;;;;;;;;;10419640;28;20412;-81
2022/04/29 19:25:31;;;;;;;6.20;4.53;;;;;;;;;;10420685;28;20415;-81
2022/04/29 19:30:33;;;;;;;6.30;4.57;;;;;;;;;;10421659;28;20970;-81
2022/04/29 19:35:35;;;;;;;5.72;4.50;;;;;;;;;;10419822;28;20490;-82
2022/04/29 19:40:39;;;;;;;7.43;4.88;;;;;;;;;;10421172;28;20418;-82
2022/04/29 19:45:41;;;;;;;8.77;5.25;;;;;;;;;;10417834;28;20456;-82
2022/04/29 19:50:43;;;;;;;9.10;4.85;;;;;;;;;;10418665;28;20515;-82
2022/04/29 19:55:47;;;;;;;9.63;4.78;;;;;;;;;;10424426;28;20432;-82
2022/04/29 20:00:49;;;;;;;8.48;4.80;;;;;;;;;;10417950;28;20421;-82
2022/04/29 20:05:51;;;;;;;7.15;5.00;;;;;;;;;;10426031;28;20410;-81
2022/04/29 20:10:54;;;;;;;6.35;5.28;;;;;;;;;;10432563;28;20827;-82
2022/04/29 20:15:57;;;;;;;9.77;6.57;;;;;;;;;;10431447;28;20774;-82
2022/04/29 20:20:59;;;;;;;11.25;6.88;;;;;;;;;;10430840;28;20450;-82
2022/04/29 20:26:03;;;;;;;8.07;6.38;;;;;;;;;;10435785;28;20417;-82
2022/04/29 20:31:05;;;;;;;9.30;6.20;;;;;;;;;;10431500;28;20408;-82
2022/04/29 20:36:06;;;;;;;7.68;6.35;;;;;;;;;;10430237;28;20508;-82
2022/04/29 20:46:31;;;;;;;8.23;6.63;;;;;;;;;;10433901;28;20400;-82
2022/04/29 20:51:34;;;;;;;10.50;7.45;;;;;;;;;;10428166;28;20507;-82
2022/04/29 20:56:37;;;;;;;9.52;7.20;;;;;;;;;;10431660;28;20415;-82
2022/04/29 21:01:40;;;;;;;9.90;7.80;;;;;;;;;;10427712;28;20966;-82
2022/04/29 21:06:44;;;;;;;11.30;7.73;;;;;;;;;;10433534;28;20498;-82
2022/04/29 21:11:50;;;;;;;10.90;8.10;;;;;;;;;;10437182;28;20891;-82
2022/04/29 21:16:52;;;;;;;8.88;7.75;;;;;;;;;;10435777;28;20427;-82
2022/04/29 21:21:54;;;;;;;10.63;8.35;;;;;;;;;;10393478;28;21637;-82
2022/04/29 21:26:57;;;;;;;9.13;8.02;;;;;;;;;;10409026;28;20421;-81
2022/04/29 21:31:59;;;;;;;12.13;8.48;;;;;;;;;;10418991;28;20422;-82
2022/04/29 21:37:01;;;;;;;10.77;8.68;;;;;;;;;;10417201;28;20978;-82
2022/04/29 21:42:05;;;;;;;9.97;8.70;;;;;;;;;;10429873;28;21111;-82
2022/04/29 21:47:06;;;;;;;11.50;9.15;;;;;;;;;;10429119;28;20486;-82
2022/04/29 21:52:08;;;;;;;12.98;9.93;;;;;;;;;;10433742;28;20482;-82
2022/04/29 21:57:12;;;;;;;14.80;10.55;;;;;;;;;;10427181;28;20424;-82
2022/04/29 22:02:14;;;;;;;13.40;9.82;;;;;;;;;;10424093;28;20407;-82
2022/04/29 22:07:16;;;;;;;11.87;10.40;;;;;;;;;;10437883;28;20437;-82
2022/04/29 22:12:20;;;;;;;13.95;11.18;;;;;;;;;;10443855;28;20827;-82
2022/04/29 22:17:21;;;;;;;11.95;10.63;;;;;;;;;;10442123;28;20435;-82
2022/04/29 22:22:26;;;;;;;13.57;11.50;;;;;;;;;;10444028;28;20491;-82
2022/04/29 22:27:29;;;;;;;15.35;12.43;;;;;;;;;;10444005;28;20492;-82
2022/04/29 22:32:31;;;;;;;14.27;12.35;;;;;;;;;;10444136;28;20478;-82
2022/04/29 22:37:34;;;;;;;16.43;13.10;;;;;;;;;;10442260;28;20419;-82
2022/04/29 22:42:42;;;;;;;15.63;13.10;;;;;;;;;;10443302;28;20843;-82
2022/04/29 22:47:43;;;;;;;17.33;13.87;;;;;;;;;;10438963;28;20422;-82
2022/04/29 22:52:47;;;;;;;16.77;14.55;;;;;;;;;;10442061;28;20494;-82
2022/04/29 22:57:51;;;;;;;15.52;13.93;;;;;;;;;;10442869;28;20430;-82
2022/04/29 23:02:53;;;;;;;18.60;14.38;;;;;;;;;;10442964;28;20399;-82
2022/04/29 23:07:54;;;;;;;17.10;14.00;;;;;;;;;;10441545;28;20494;-82
2022/04/29 23:12:57;;;;;;;16.27;14.25;;;;;;;;;;10442293;28;20486;-82
2022/04/29 23:23:20;;;;;;;16.73;13.32;;;;;;;;;;10439111;28;21283;-82
2022/04/29 23:28:23;;;;;;;15.20;13.63;;;;;;;;;;10441775;28;20400;-82
2022/04/29 23:33:25;;;;;;;16.65;13.95;;;;;;;;;;10441328;28;20502;-82
2022/04/29 23:38:27;;;;;;;17.42;13.63;;;;;;;;;;10440889;28;20412;-82
2022/04/29 23:43:31;;;;;;;17.33;13.70;;;;;;;;;;10440655;28;20431;-82
2022/04/29 23:48:32;;;;;;;16.35;13.88;;;;;;;;;;10440646;28;20503;-82
2022/04/29 23:53:34;;;;;;;19.20;15.40;;;;;;;;;;10441178;28;20423;-81
2022/04/29 23:58:38;;;;;;;23.38;16.20;;;;;;;;;;10439747;28;20423;-82
